createdAt,value
2018-09-30T00:00:32.817Z,8.33
2018-09-30T00:03:05.552Z,7.67
2018-09-30T00:05:38.098Z,8.00
2018-09-30T00:08:10.591Z,9.73
2018-09-30T00:10:43.126Z,6.00
2018-09-30T00:13:15.644Z,15.00
2018-09-30T00:15:48.309Z,10.77
2018-09-30T00:18:20.778Z,10.03
2018-09-30T00:20:53.198Z,7.53
2018-09-30T00:23:25.895Z,7.43
2018-09-30T00:26:04.409Z,6.67
2018-09-30T00:28:36.907Z,7.87
2018-09-30T00:31:09.387Z,6.93
2018-09-30T00:33:48.392Z,11.33
2018-09-30T00:36:21.185Z,5.87
2018-09-30T00:38:53.933Z,7.80
2018-09-30T00:41:26.750Z,6.03
2018-09-30T00:44:00.308Z,6.77
2018-09-30T00:46:32.917Z,11.23
2018-09-30T00:49:05.874Z,6.03
2018-09-30T00:51:38.577Z,10.03
2018-09-30T00:54:12.231Z,8.17
2018-09-30T00:56:45.415Z,7.27
2018-09-30T00:59:18.138Z,7.10
2018-09-30T01:01:50.730Z,5.47
2018-09-30T01:04:23.349Z,9.27
2018-09-30T01:06:56.117Z,10.20
2018-09-30T01:09:29.092Z,8.97
2018-09-30T01:12:01.960Z,8.83
2018-09-30T01:14:34.591Z,4.63
2018-09-30T01:17:07.033Z,8.50
2018-09-30T01:19:39.454Z,6.60
2018-09-30T01:22:11.902Z,5.80
2018-09-30T01:24:44.362Z,9.03
2018-09-30T01:27:16.832Z,7.97
2018-09-30T01:29:49.331Z,7.33
2018-09-30T01:32:21.967Z,6.73
2018-09-30T01:34:54.881Z,6.40
2018-09-30T01:37:27.419Z,6.70
2018-09-30T01:39:59.921Z,7.10
2018-09-30T01:42:32.374Z,8.30
2018-09-30T01:45:04.951Z,6.17
2018-09-30T01:47:37.435Z,7.23
2018-09-30T01:50:09.829Z,5.80
2018-09-30T01:52:55.938Z,7.77
2018-09-30T01:55:28.429Z,6.63
2018-09-30T01:58:01.079Z,6.63
2018-09-30T02:00:33.745Z,7.17
2018-09-30T02:03:06.475Z,7.97
2018-09-30T02:05:40.373Z,6.43
2018-09-30T02:08:12.909Z,6.17
2018-09-30T02:10:45.353Z,6.10
2018-09-30T02:13:17.777Z,6.20
2018-09-30T02:15:50.251Z,8.30
2018-09-30T02:18:22.654Z,6.00
2018-09-30T02:20:55.108Z,9.07
2018-09-30T02:23:27.760Z,6.70
2018-09-30T02:26:00.824Z,6.10
2018-09-30T02:28:33.321Z,8.07
2018-09-30T02:31:05.954Z,7.07
2018-09-30T02:33:38.500Z,7.40
2018-09-30T02:36:10.909Z,7.07
2018-09-30T02:38:43.318Z,7.67
2018-09-30T02:41:15.776Z,6.70
2018-09-30T02:43:48.248Z,8.33
2018-09-30T02:46:20.728Z,6.00
2018-09-30T02:48:53.134Z,8.80
2018-09-30T02:51:25.670Z,8.27
2018-09-30T02:53:58.319Z,4.57
2018-09-30T02:56:30.755Z,5.73
2018-09-30T02:59:03.354Z,5.67
2018-09-30T03:01:35.770Z,10.83
2018-09-30T03:04:08.178Z,4.87
2018-09-30T03:06:47.467Z,5.33
2018-09-30T03:09:20.029Z,4.20
2018-09-30T03:11:52.466Z,9.97
2018-09-30T03:14:25.355Z,5.83
2018-09-30T03:16:57.775Z,5.40
2018-09-30T03:19:30.271Z,7.60
2018-09-30T03:22:02.752Z,6.47
2018-09-30T03:24:35.183Z,6.70
2018-09-30T03:27:07.739Z,7.17
2018-09-30T03:29:40.171Z,6.57
2018-09-30T03:32:12.936Z,8.27
2018-09-30T03:34:45.429Z,5.00
2018-09-30T03:37:17.899Z,5.57
2018-09-30T03:39:50.365Z,8.37
2018-09-30T03:42:22.832Z,4.40
2018-09-30T03:44:55.374Z,7.47
2018-09-30T03:47:27.869Z,5.50
2018-09-30T03:50:00.314Z,6.73
2018-09-30T03:52:32.706Z,6.10
2018-09-30T03:55:05.226Z,6.00
2018-09-30T03:57:37.635Z,4.03
2018-09-30T04:00:10.105Z,5.10
2018-09-30T04:02:42.560Z,4.67
2018-09-30T04:05:15.044Z,4.57
2018-09-30T04:07:47.583Z,5.47
2018-09-30T04:10:20.111Z,8.17
2018-09-30T04:12:52.592Z,5.27
2018-09-30T04:15:25.157Z,6.97
2018-09-30T04:17:57.627Z,9.43
2018-09-30T04:20:30.304Z,4.63
2018-09-30T04:23:02.761Z,7.27
2018-09-30T04:25:35.235Z,7.93
2018-09-30T04:28:07.680Z,8.07
2018-09-30T04:30:40.175Z,6.60
2018-09-30T04:33:12.671Z,7.63
2018-09-30T04:35:45.213Z,8.30
2018-09-30T04:38:17.586Z,6.07
2018-09-30T04:40:50.029Z,8.33
2018-09-30T04:43:22.511Z,6.33
2018-09-30T04:45:54.937Z,6.27
2018-09-30T04:48:27.735Z,7.93
2018-09-30T04:51:00.204Z,6.70
2018-09-30T04:53:32.678Z,6.53
2018-09-30T04:56:05.101Z,5.67
2018-09-30T04:58:37.515Z,5.83
2018-09-30T05:01:10.002Z,10.83
2018-09-30T05:03:42.482Z,8.60
2018-09-30T05:06:15.118Z,8.50
2018-09-30T05:08:49.499Z,8.57
2018-09-30T05:11:21.904Z,6.07
2018-09-30T05:13:54.387Z,7.10
2018-09-30T05:16:26.902Z,8.83
2018-09-30T05:18:59.763Z,6.47
2018-09-30T05:21:32.226Z,6.80
2018-09-30T05:24:05.034Z,5.67
2018-09-30T05:26:38.052Z,7.40
2018-09-30T05:29:10.963Z,6.83
2018-09-30T05:31:43.460Z,7.13
2018-09-30T05:34:15.990Z,6.90
2018-09-30T05:36:48.505Z,10.93
2018-09-30T05:39:21.659Z,7.93
2018-09-30T05:41:54.401Z,6.07
2018-09-30T05:44:26.912Z,5.40
2018-09-30T05:47:00.234Z,7.27
2018-09-30T05:49:32.898Z,7.83
2018-09-30T05:52:05.370Z,6.37
2018-09-30T05:54:37.808Z,11.53
2018-09-30T05:57:10.271Z,5.80
2018-09-30T05:59:42.723Z,6.33
2018-09-30T06:02:15.151Z,8.63
2018-09-30T06:04:48.047Z,7.87
2018-09-30T06:07:20.544Z,6.30
2018-09-30T06:09:53.964Z,7.87
2018-09-30T06:12:26.719Z,7.73
2018-09-30T06:14:59.428Z,6.57
2018-09-30T06:17:31.871Z,7.17
2018-09-30T06:20:04.688Z,8.73
2018-09-30T06:22:37.381Z,7.53
2018-09-30T06:25:10.110Z,9.17
2018-09-30T06:27:42.495Z,7.23
2018-09-30T06:30:15.894Z,5.70
2018-09-30T06:32:48.604Z,7.30
2018-09-30T06:35:21.002Z,6.47
2018-09-30T06:37:53.550Z,5.87
2018-09-30T06:40:26.118Z,7.17
2018-09-30T06:42:58.542Z,7.00
2018-09-30T06:45:31.185Z,9.20
2018-09-30T06:48:04.174Z,4.73
2018-09-30T06:50:38.005Z,6.40
2018-09-30T06:53:10.742Z,5.67
2018-09-30T06:55:43.181Z,5.73
2018-09-30T06:58:15.697Z,7.00
2018-09-30T07:00:48.222Z,8.73
2018-09-30T07:03:20.872Z,7.90
2018-09-30T07:05:53.917Z,5.77
2018-09-30T07:08:26.332Z,5.17
2018-09-30T07:10:59.653Z,5.73
2018-09-30T07:13:32.032Z,6.23
2018-09-30T07:16:04.564Z,7.03
2018-09-30T07:18:37.256Z,7.40
2018-09-30T07:21:09.949Z,12.20
2018-09-30T07:23:42.692Z,7.13
2018-09-30T07:26:15.396Z,5.90
2018-09-30T07:28:47.903Z,6.93
2018-09-30T07:31:20.497Z,9.03
2018-09-30T07:33:52.957Z,6.83
2018-09-30T07:36:25.969Z,8.40
2018-09-30T07:38:58.658Z,10.17
2018-09-30T07:41:31.431Z,6.40
2018-09-30T07:44:03.834Z,7.27
2018-09-30T07:46:36.505Z,5.63
2018-09-30T07:49:09.166Z,5.63
2018-09-30T07:51:41.709Z,5.60
2018-09-30T07:54:14.337Z,6.73
2018-09-30T07:56:47.037Z,7.70
2018-09-30T07:59:19.431Z,8.23
2018-09-30T08:01:52.050Z,7.67
2018-09-30T08:04:24.544Z,6.60
2018-09-30T08:06:57.024Z,5.07
2018-09-30T08:09:29.431Z,6.30
2018-09-30T08:12:03.132Z,4.43
2018-09-30T08:14:36.291Z,7.13
2018-09-30T08:17:08.910Z,6.07
2018-09-30T08:19:41.934Z,5.53
2018-09-30T08:22:14.687Z,7.63
2018-09-30T08:24:47.239Z,5.00
2018-09-30T08:27:19.694Z,8.17
2018-09-30T08:29:52.223Z,8.77
2018-09-30T08:32:24.659Z,6.83
2018-09-30T08:34:57.433Z,7.23
2018-09-30T08:37:35.564Z,4.53
2018-09-30T08:40:08.808Z,10.40
2018-09-30T08:42:41.541Z,4.67
2018-09-30T08:45:14.349Z,6.43
2018-09-30T08:47:47.115Z,8.13
2018-09-30T08:50:19.833Z,5.50
2018-09-30T08:52:52.454Z,8.23
2018-09-30T08:55:25.316Z,7.70
2018-09-30T08:57:58.022Z,7.33
2018-09-30T09:00:30.835Z,5.77
2018-09-30T09:03:04.370Z,6.87
2018-09-30T09:05:37.056Z,6.83
2018-09-30T09:08:10.076Z,4.50
2018-09-30T09:10:42.884Z,7.47
2018-09-30T09:13:15.562Z,5.23
2018-09-30T09:15:48.303Z,7.23
2018-09-30T09:18:20.846Z,7.27
2018-09-30T09:20:53.330Z,5.87
2018-09-30T09:23:26.079Z,5.67
2018-09-30T09:25:58.499Z,6.70
2018-09-30T09:28:31.752Z,5.47
2018-09-30T09:31:04.274Z,7.43
2018-09-30T09:33:36.854Z,8.53
2018-09-30T09:36:10.357Z,7.13
2018-09-30T09:38:42.954Z,8.50
2018-09-30T09:41:16.210Z,5.17
2018-09-30T09:43:48.883Z,5.70
2018-09-30T09:46:22.067Z,4.43
2018-09-30T09:48:54.912Z,5.10
2018-09-30T09:51:27.772Z,7.00
2018-09-30T09:54:03.666Z,6.20
2018-09-30T09:56:36.365Z,5.40
2018-09-30T09:59:08.940Z,8.73
2018-09-30T10:01:41.875Z,8.03
2018-09-30T10:04:14.756Z,5.87
2018-09-30T10:06:47.588Z,3.80
2018-09-30T10:09:20.145Z,5.53
2018-09-30T10:11:53.259Z,6.73
2018-09-30T10:14:26.270Z,10.07
2018-09-30T10:16:59.119Z,4.57
2018-09-30T10:19:32.431Z,7.40
2018-09-30T10:22:05.355Z,4.87
2018-09-30T10:24:38.171Z,7.40
2018-09-30T10:27:11.101Z,4.77
2018-09-30T10:29:43.658Z,5.80
2018-09-30T10:32:16.271Z,4.50
2018-09-30T10:34:48.882Z,7.83
2018-09-30T10:37:21.881Z,5.23
2018-09-30T10:39:54.556Z,4.73
2018-09-30T10:42:27.073Z,4.57
2018-09-30T10:44:59.777Z,5.17
2018-09-30T10:47:32.477Z,6.90
2018-09-30T10:50:05.523Z,7.53
2018-09-30T10:52:38.339Z,5.53
2018-09-30T10:55:11.300Z,5.07
2018-09-30T10:57:44.222Z,9.10
2018-09-30T11:00:17.052Z,10.83
2018-09-30T11:02:49.900Z,8.50
2018-09-30T11:05:22.505Z,4.37
2018-09-30T11:07:55.280Z,5.83
2018-09-30T11:10:28.556Z,6.47
2018-09-30T11:13:01.480Z,6.97
2018-09-30T11:15:34.088Z,5.97
2018-09-30T11:18:06.674Z,3.67
2018-09-30T11:20:39.159Z,9.10
2018-09-30T11:23:11.649Z,5.13
2018-09-30T11:25:44.238Z,6.77
2018-09-30T11:28:16.908Z,4.40
2018-09-30T11:30:49.412Z,6.47
2018-09-30T11:33:21.908Z,10.30
2018-09-30T11:35:54.560Z,22.37
2018-09-30T11:38:27.110Z,13.60
2018-09-30T11:40:59.790Z,7.63
2018-09-30T11:43:32.499Z,5.53
2018-09-30T11:46:05.314Z,4.67
2018-09-30T11:48:38.182Z,3.63
2018-09-30T11:51:11.074Z,7.10
2018-09-30T11:53:43.955Z,7.07
2018-09-30T11:56:17.771Z,13.87
2018-09-30T11:58:50.553Z,9.63
2018-09-30T12:01:23.233Z,9.97
2018-09-30T12:03:55.937Z,6.20
2018-09-30T12:06:28.774Z,3.87
2018-09-30T12:09:01.323Z,4.93
2018-09-30T12:11:34.007Z,5.57
2018-09-30T12:14:07.146Z,8.83
2018-09-30T12:16:39.948Z,16.00
2018-09-30T12:19:12.758Z,6.07
2018-09-30T12:21:45.655Z,9.70
2018-09-30T12:24:18.541Z,8.53
2018-09-30T12:26:51.309Z,4.57
2018-09-30T12:29:24.132Z,12.53
2018-09-30T12:31:56.954Z,10.07
2018-09-30T12:34:29.961Z,6.00
2018-09-30T12:37:02.921Z,3.80
2018-09-30T12:39:36.318Z,14.57
2018-09-30T12:42:09.201Z,5.47
2018-09-30T12:44:42.149Z,4.03
2018-09-30T12:47:15.252Z,8.07
2018-09-30T12:49:48.121Z,8.13
2018-09-30T12:52:21.310Z,10.43
2018-09-30T12:54:53.901Z,6.60
2018-09-30T12:57:26.904Z,3.37
2018-09-30T12:59:59.656Z,5.70
2018-09-30T13:02:32.774Z,8.17
2018-09-30T13:05:05.798Z,6.77
2018-09-30T13:07:38.799Z,8.60
2018-09-30T13:10:11.590Z,6.13
2018-09-30T13:12:44.386Z,7.63
2018-09-30T13:15:17.225Z,8.93
2018-09-30T13:17:49.927Z,7.63
2018-09-30T13:20:22.707Z,10.37
2018-09-30T13:22:55.220Z,6.93
2018-09-30T13:25:27.881Z,7.80
2018-09-30T13:28:00.643Z,6.87
2018-09-30T13:30:33.276Z,9.87
2018-09-30T13:33:06.146Z,10.20
2018-09-30T13:35:39.365Z,6.67
2018-09-30T13:38:12.614Z,5.47
2018-09-30T13:40:45.443Z,6.93
2018-09-30T13:43:18.198Z,11.50
2018-09-30T13:45:50.930Z,15.53
2018-09-30T13:48:23.749Z,14.10
2018-09-30T13:50:56.313Z,9.50
2018-09-30T13:53:28.900Z,6.20
2018-09-30T13:56:01.643Z,6.70
2018-09-30T13:58:34.430Z,11.87
2018-09-30T14:01:07.052Z,7.70
2018-09-30T14:03:39.783Z,9.67
2018-09-30T14:06:12.294Z,19.60
2018-09-30T14:08:45.261Z,7.07
2018-09-30T14:11:17.856Z,5.17
2018-09-30T14:13:50.406Z,11.90
2018-09-30T14:16:22.967Z,17.30
2018-09-30T14:18:55.921Z,24.47
2018-09-30T14:21:28.611Z,20.23
2018-09-30T14:24:01.569Z,15.03
2018-09-30T14:26:33.999Z,13.77
2018-09-30T14:29:06.955Z,17.80
2018-09-30T14:31:39.385Z,14.97
2018-09-30T14:34:12.998Z,11.13
2018-09-30T14:36:45.650Z,19.87
2018-09-30T14:39:18.143Z,11.73
2018-09-30T14:41:50.652Z,5.50
2018-09-30T14:44:23.223Z,6.73
2018-09-30T14:46:55.702Z,3.43
2018-09-30T14:49:28.588Z,12.77
2018-09-30T14:52:01.251Z,14.00
2018-09-30T14:54:33.859Z,7.33
2018-09-30T14:57:06.387Z,14.03
2018-09-30T14:59:38.908Z,5.13
2018-09-30T15:02:11.495Z,15.23
2018-09-30T15:04:43.927Z,6.07
2018-09-30T15:07:16.486Z,6.43
2018-09-30T15:09:48.942Z,11.17
2018-09-30T15:12:21.366Z,11.33
2018-09-30T15:14:53.811Z,4.90
2018-09-30T15:17:26.320Z,7.30
2018-09-30T15:19:58.865Z,4.73
2018-09-30T15:22:31.311Z,5.30
2018-09-30T15:25:04.165Z,5.53
2018-09-30T15:27:37.155Z,6.23
2018-09-30T15:30:09.719Z,7.83
2018-09-30T15:32:42.305Z,7.73
2018-09-30T15:35:14.830Z,10.37
2018-09-30T15:37:47.726Z,21.73
2018-09-30T15:40:20.348Z,8.50
2018-09-30T15:42:54.662Z,12.57
2018-09-30T15:45:27.829Z,7.00
2018-09-30T15:48:00.303Z,5.37
2018-09-30T15:50:33.176Z,7.60
2018-09-30T15:53:06.339Z,6.90
2018-09-30T15:55:38.905Z,10.93
2018-09-30T15:58:12.227Z,11.53
2018-09-30T16:00:44.934Z,9.57
2018-09-30T16:03:18.072Z,7.27
2018-09-30T16:05:50.778Z,8.07
2018-09-30T16:08:24.590Z,13.57
2018-09-30T16:10:58.501Z,6.83
2018-09-30T16:13:31.976Z,26.97
2018-09-30T16:16:05.709Z,11.73
2018-09-30T16:18:38.887Z,12.60
2018-09-30T16:21:15.392Z,7.90
2018-09-30T16:23:48.340Z,5.50
2018-09-30T16:26:21.939Z,9.20
2018-09-30T16:28:55.579Z,6.87
2018-09-30T16:31:30.012Z,5.83
2018-09-30T16:34:02.702Z,8.10
2018-09-30T16:36:36.188Z,7.57
2018-09-30T16:39:10.032Z,13.10
2018-09-30T16:41:44.241Z,6.63
2018-09-30T16:44:17.064Z,5.27
2018-09-30T16:46:50.092Z,6.47
2018-09-30T16:49:22.706Z,5.20
2018-09-30T16:51:55.558Z,5.53
2018-09-30T16:54:28.246Z,8.03
2018-09-30T16:57:01.304Z,7.70
2018-09-30T16:59:35.230Z,10.37
2018-09-30T17:02:08.698Z,13.30
2018-09-30T17:04:42.149Z,13.83
2018-09-30T17:07:14.863Z,12.50
2018-09-30T17:09:48.401Z,11.33
2018-09-30T17:12:21.420Z,12.63
2018-09-30T17:14:54.022Z,13.27
2018-09-30T17:17:26.577Z,11.10
2018-09-30T17:19:59.097Z,14.07
2018-09-30T17:22:32.004Z,12.83
2018-09-30T17:25:04.860Z,14.47
2018-09-30T17:27:37.605Z,14.80
2018-09-30T17:30:10.482Z,13.90
2018-09-30T17:32:43.299Z,20.10
2018-09-30T17:35:15.807Z,12.13
2018-09-30T17:37:48.283Z,15.13
2018-09-30T17:40:21.101Z,18.47
2018-09-30T17:42:54.796Z,13.03
2018-09-30T17:45:27.856Z,15.37
2018-09-30T17:48:00.912Z,13.83
2018-09-30T17:50:34.719Z,12.73
2018-09-30T17:53:07.620Z,16.30
2018-09-30T17:55:40.489Z,15.33
2018-09-30T17:58:13.230Z,16.70
2018-09-30T18:00:46.218Z,19.27
2018-09-30T18:03:19.446Z,13.10
2018-09-30T18:05:52.311Z,19.13
2018-09-30T18:08:25.284Z,15.73
2018-09-30T18:10:58.391Z,14.77
2018-09-30T18:13:30.976Z,18.60
2018-09-30T18:16:03.944Z,15.03
2018-09-30T18:18:36.822Z,18.07
2018-09-30T18:21:09.553Z,15.80
2018-09-30T18:23:43.669Z,17.07
2018-09-30T18:26:17.010Z,17.60
2018-09-30T18:28:49.471Z,16.57
2018-09-30T18:31:22.175Z,19.33
2018-09-30T18:33:54.775Z,20.23
2018-09-30T18:36:27.271Z,22.73
2018-09-30T18:38:59.892Z,23.07
2018-09-30T18:41:32.498Z,18.73
2018-09-30T18:44:05.362Z,21.87
2018-09-30T18:46:37.969Z,19.27
2018-09-30T18:49:11.159Z,24.30
2018-09-30T18:51:43.895Z,21.37
2018-09-30T18:54:16.727Z,24.17
2018-09-30T18:56:49.708Z,24.07
2018-09-30T18:59:22.611Z,23.00
2018-09-30T19:01:55.750Z,22.03
2018-09-30T19:04:28.475Z,21.20
2018-09-30T19:07:01.433Z,23.57
2018-09-30T19:09:34.599Z,23.77
2018-09-30T19:12:07.602Z,24.37
2018-09-30T19:14:40.451Z,28.80
2018-09-30T19:17:13.684Z,24.33
2018-09-30T19:19:47.159Z,25.60
2018-09-30T19:22:19.819Z,29.73
2018-09-30T19:24:52.633Z,27.07
2018-09-30T19:27:25.334Z,30.67
2018-09-30T19:29:59.629Z,28.77
2018-09-30T19:32:34.261Z,27.87
2018-09-30T19:35:09.206Z,23.70
2018-09-30T19:37:42.934Z,25.60
2018-09-30T19:40:16.273Z,25.13
2018-09-30T19:42:49.011Z,23.37
2018-09-30T19:45:21.983Z,24.70
2018-09-30T19:47:55.691Z,26.20
2018-09-30T19:50:28.253Z,21.53
2018-09-30T19:53:01.030Z,26.13
2018-09-30T19:55:36.267Z,27.93
2018-09-30T19:58:09.317Z,28.30
2018-09-30T20:00:42.527Z,26.37
2018-09-30T20:03:15.661Z,26.67
2018-09-30T20:05:48.632Z,21.80
2018-09-30T20:08:21.903Z,24.00
2018-09-30T20:10:54.800Z,26.43
2018-09-30T20:13:28.142Z,22.40
2018-09-30T20:16:00.689Z,26.07
2018-09-30T20:18:33.277Z,23.77
2018-09-30T20:21:08.325Z,26.50
2018-09-30T20:23:41.355Z,27.43
2018-09-30T20:26:14.862Z,23.40
2018-09-30T20:28:49.141Z,23.27
2018-09-30T20:31:22.002Z,20.70
2018-09-30T20:33:54.740Z,23.10
2018-09-30T20:36:27.408Z,26.27
2018-09-30T20:39:00.677Z,22.93
2018-09-30T20:41:33.566Z,22.33
2018-09-30T20:44:06.268Z,21.57
2018-09-30T20:46:40.179Z,22.67
2018-09-30T20:49:13.536Z,29.00
2018-09-30T20:51:46.365Z,24.30
2018-09-30T20:54:18.816Z,25.50
2018-09-30T20:56:51.482Z,23.47
2018-09-30T20:59:23.925Z,27.53
2018-09-30T21:01:56.430Z,29.03
2018-09-30T21:04:29.593Z,26.67
2018-09-30T21:07:02.681Z,26.67
2018-09-30T21:09:35.421Z,29.97
2018-09-30T21:12:08.704Z,25.50
2018-09-30T21:14:41.346Z,25.30
2018-09-30T21:17:18.237Z,29.07
2018-09-30T21:19:51.078Z,28.73
2018-09-30T21:22:23.936Z,28.13
2018-09-30T21:24:56.608Z,26.40
2018-09-30T21:27:29.386Z,33.60
2018-09-30T21:30:02.081Z,27.33
2018-09-30T21:32:34.666Z,30.87
2018-09-30T21:35:07.589Z,34.17
2018-09-30T21:37:40.296Z,31.73
2018-09-30T21:40:13.092Z,28.27
2018-09-30T21:42:45.678Z,28.03
2018-09-30T21:45:18.461Z,30.90
2018-09-30T21:47:50.968Z,31.27
2018-09-30T21:50:23.435Z,31.10
2018-09-30T21:52:55.937Z,30.93
2018-09-30T21:55:28.574Z,32.67
2018-09-30T21:58:01.184Z,28.83
2018-09-30T22:00:37.736Z,34.10
2018-09-30T22:03:11.330Z,29.83
2018-09-30T22:05:43.803Z,30.43
2018-09-30T22:08:16.344Z,33.30
2018-09-30T22:10:48.996Z,32.47
2018-09-30T22:13:21.475Z,29.80
2018-09-30T22:15:54.205Z,27.23
2018-09-30T22:18:27.401Z,32.37
2018-09-30T22:21:00.176Z,28.53
2018-09-30T22:23:32.646Z,31.90
2018-09-30T22:26:05.359Z,25.87
2018-09-30T22:28:37.889Z,31.87
2018-09-30T22:31:10.521Z,28.83
2018-09-30T22:33:43.034Z,30.27
2018-09-30T22:36:15.664Z,29.77
2018-09-30T22:38:48.255Z,28.20
2018-09-30T22:41:21.100Z,29.70
2018-09-30T22:43:53.537Z,31.13
2018-09-30T22:46:25.977Z,25.70
2018-09-30T22:48:58.576Z,30.50
2018-09-30T22:51:31.250Z,26.20
2018-09-30T22:54:03.668Z,27.40
2018-09-30T22:56:36.465Z,25.63
2018-09-30T22:59:09.774Z,30.77
2018-09-30T23:01:42.213Z,30.57
2018-09-30T23:04:14.662Z,29.20
2018-09-30T23:06:47.062Z,26.87
2018-09-30T23:09:19.579Z,28.47
2018-09-30T23:11:52.030Z,25.80
2018-09-30T23:14:24.615Z,24.93
2018-09-30T23:16:57.006Z,30.50
2018-09-30T23:19:29.491Z,28.17
2018-09-30T23:22:01.889Z,25.37
2018-09-30T23:24:34.431Z,26.40
2018-09-30T23:27:06.847Z,24.93
2018-09-30T23:29:39.703Z,24.80
2018-09-30T23:32:12.376Z,25.40
2018-09-30T23:34:44.859Z,23.50
2018-09-30T23:37:17.244Z,23.93
2018-09-30T23:39:49.733Z,27.33
2018-09-30T23:42:22.178Z,27.20
2018-09-30T23:44:54.743Z,28.17
2018-09-30T23:47:27.698Z,25.87
2018-09-30T23:50:00.482Z,26.77
2018-09-30T23:52:33.011Z,23.43
2018-09-30T23:55:05.771Z,24.63
2018-09-30T23:57:38.479Z,23.60
